Time;durP1;ratioP1;P1;durP2;ratioP2;P2;SDS_P1;SDS_P2;PMS_P1;PMS_P2;Temp;Humidity;BMP_temperature;BMP_pressure;BME280_temperature;BME280_humidity;BME280_pressure;Samples;Min_cycle;Max_cycle;Signal;HPM_P1;HPM_P2
2022/08/13 00:02:43;;;;;;;2.37;1.17;;;;;;;;;;10396530;28;20217;-72
2022/08/13 00:07:44;;;;;;;2.80;1.77;;;;;;;;;;10395542;28;20635;-71
2022/08/13 00:12:57;;;;;;;3.90;1.43;;;;;;;;;;10386721;28;20221;-71
2022/08/13 00:18:06;;;;;;;2.77;1.40;;;;;;;;;;10395753;28;20248;-72
2022/08/13 00:23:08;;;;;;;2.60;1.53;;;;;;;;;;10390588;28;20213;-72
2022/08/13 00:28:10;;;;;;;2.40;1.60;;;;;;;;;;10391246;28;20216;-71
2022/08/13 00:33:15;;;;;;;4.77;1.70;;;;;;;;;;10397306;28;20733;-72
2022/08/13 00:38:18;;;;;;;4.97;1.70;;;;;;;;;;10394936;28;20319;-72
2022/08/13 00:43:32;;;;;;;4.07;1.57;;;;;;;;;;10394967;28;20224;-73
2022/08/13 00:48:42;;;;;;;2.10;1.53;;;;;;;;;;10392570;28;20228;-73
2022/08/13 00:53:44;;;;;;;2.27;1.90;;;;;;;;;;10386272;28;20228;-73
2022/08/13 00:58:46;;;;;;;3.70;1.60;;;;;;;;;;10393767;28;20250;-72
2022/08/13 01:03:51;;;;;;;4.07;1.73;;;;;;;;;;10392354;28;20238;-73
2022/08/13 01:08:53;;;;;;;4.83;1.73;;;;;;;;;;10386417;28;20253;-73
2022/08/13 01:13:58;;;;;;;6.67;1.37;;;;;;;;;;10400746;28;20231;-73
2022/08/13 01:19:00;;;;;;;1.73;1.20;;;;;;;;;;10391035;28;20327;-73
2022/08/13 01:24:01;;;;;;;2.47;1.60;;;;;;;;;;10384687;28;20249;-73
2022/08/13 01:29:04;;;;;;;4.47;1.23;;;;;;;;;;10394893;28;20220;-73
2022/08/13 01:34:06;;;;;;;3.00;1.43;;;;;;;;;;10389558;28;20228;-73
2022/08/13 01:39:08;;;;;;;1.40;1.30;;;;;;;;;;10393452;28;20241;-73
2022/08/13 01:44:09;;;;;;;4.83;1.40;;;;;;;;;;10387561;28;20220;-72
2022/08/13 01:54:30;;;;;;;1.57;1.30;;;;;;;;;;10392476;28;20219;-73
2022/08/13 01:59:34;;;;;;;1.57;1.30;;;;;;;;;;10384712;28;20225;-73
2022/08/13 02:04:35;;;;;;;2.27;1.27;;;;;;;;;;10383029;28;20725;-74
2022/08/13 02:09:38;;;;;;;1.70;1.60;;;;;;;;;;10396487;28;20227;-73
2022/08/13 02:14:43;;;;;;;2.40;1.43;;;;;;;;;;10398933;28;20633;-74
2022/08/13 02:19:44;;;;;;;1.50;1.40;;;;;;;;;;10390999;28;20240;-74
2022/08/13 02:24:52;;;;;;;1.30;1.20;;;;;;;;;;10391097;28;20239;-74
2022/08/13 02:29:54;;;;;;;2.40;1.33;;;;;;;;;;10407579;28;20300;-74
2022/08/13 02:34:56;;;;;;;1.40;1.30;;;;;;;;;;10398226;28;20224;-74
2022/08/13 02:40:01;;;;;;;1.50;1.40;;;;;;;;;;10398791;28;20716;-74
2022/08/13 02:45:04;;;;;;;1.93;1.57;;;;;;;;;;10396387;28;20225;-74
2022/08/13 02:50:08;;;;;;;1.20;1.10;;;;;;;;;;10393658;28;20236;-71
2022/08/13 02:55:09;;;;;;;2.43;1.40;;;;;;;;;;10392795;28;20207;-75
2022/08/13 03:00:10;;;;;;;2.63;1.50;;;;;;;;;;10394216;28;20208;-73
2022/08/13 03:05:19;;;;;;;2.17;1.67;;;;;;;;;;10394010;28;20224;-73
2022/08/13 03:10:23;;;;;;;2.33;1.30;;;;;;;;;;10395508;28;20206;-73
2022/08/13 03:15:25;;;;;;;1.60;1.43;;;;;;;;;;10401712;28;20275;-73
2022/08/13 03:20:26;;;;;;;4.40;1.50;;;;;;;;;;10403277;28;20324;-73
2022/08/13 03:25:31;;;;;;;3.30;1.43;;;;;;;;;;10395232;28;20316;-73
2022/08/13 03:30:35;;;;;;;3.57;1.57;;;;;;;;;;10396998;28;20236;-73
2022/08/13 03:35:39;;;;;;;2.50;1.73;;;;;;;;;;10400177;28;20217;-72
2022/08/13 03:46:01;;;;;;;1.70;1.60;;;;;;;;;;10390833;28;21202;-73
2022/08/13 03:51:02;;;;;;;3.77;1.70;;;;;;;;;;10392550;28;20239;-73
2022/08/13 03:56:07;;;;;;;5.00;2.00;;;;;;;;;;10391008;28;20220;-73
2022/08/13 04:01:11;;;;;;;1.67;1.50;;;;;;;;;;10396380;28;20297;-73
2022/08/13 04:06:16;;;;;;;4.37;1.73;;;;;;;;;;10385906;28;20220;-74
2022/08/13 04:11:18;;;;;;;1.67;1.23;;;;;;;;;;10390390;28;20244;-74
2022/08/13 04:16:20;;;;;;;1.70;1.60;;;;;;;;;;10392583;28;20256;-73
2022/08/13 04:21:28;;;;;;;1.60;1.50;;;;;;;;;;10386626;28;20244;-73
2022/08/13 04:26:29;;;;;;;1.87;1.63;;;;;;;;;;10394589;28;20217;-73
2022/08/13 04:31:31;;;;;;;4.10;1.70;;;;;;;;;;10393652;28;21050;-74
2022/08/13 04:36:32;;;;;;;3.63;1.47;;;;;;;;;;10395425;28;20749;-73
2022/08/13 04:41:33;;;;;;;2.43;1.60;;;;;;;;;;10395005;28;20281;-74
2022/08/13 04:46:34;;;;;;;1.50;1.40;;;;;;;;;;10386851;28;20224;-73
2022/08/13 04:51:35;;;;;;;1.77;1.50;;;;;;;;;;10392713;28;20236;-74
2022/08/13 04:56:36;;;;;;;3.03;1.30;;;;;;;;;;10387189;28;20256;-74
2022/08/13 05:01:37;;;;;;;1.97;1.60;;;;;;;;;;10393500;28;20278;-73
2022/08/13 05:06:38;;;;;;;2.93;1.80;;;;;;;;;;10383881;28;20243;-73
2022/08/13 05:11:40;;;;;;;5.43;1.70;;;;;;;;;;10393357;28;20692;-73
2022/08/13 05:16:41;;;;;;;3.03;1.50;;;;;;;;;;10384931;28;20649;-72
2022/08/13 05:21:42;;;;;;;1.60;1.50;;;;;;;;;;10392038;28;20224;-72
2022/08/13 05:26:43;;;;;;;2.80;1.50;;;;;;;;;;10393829;28;20252;-73
2022/08/13 05:31:45;;;;;;;3.23;1.50;;;;;;;;;;10391354;28;20818;-72
2022/08/13 05:36:46;;;;;;;2.73;1.70;;;;;;;;;;10394746;28;20286;-72
2022/08/13 05:41:49;;;;;;;6.80;1.80;;;;;;;;;;10383947;28;20275;-73
2022/08/13 05:46:50;;;;;;;4.40;1.40;;;;;;;;;;10391761;28;20221;-73
2022/08/13 05:51:57;;;;;;;1.90;1.33;;;;;;;;;;10385332;28;20232;-73
2022/08/13 05:56:58;;;;;;;4.13;1.50;;;;;;;;;;10387826;28;20646;-73
2022/08/13 06:07:19;;;;;;;3.10;1.40;;;;;;;;;;10387544;28;20225;-73
2022/08/13 06:12:21;;;;;;;5.90;1.57;;;;;;;;;;10389051;28;20290;-72
2022/08/13 06:17:23;;;;;;;2.73;1.80;;;;;;;;;;10382756;28;20226;-73
2022/08/13 06:22:24;;;;;;;5.17;1.50;;;;;;;;;;10392501;28;20236;-74
2022/08/13 06:27:26;;;;;;;4.03;1.53;;;;;;;;;;10389876;28;20224;-73
2022/08/13 06:32:28;;;;;;;1.73;1.30;;;;;;;;;;10384043;28;20811;-73
2022/08/13 06:37:29;;;;;;;2.70;1.50;;;;;;;;;;10396112;28;20228;-73
2022/08/13 06:42:37;;;;;;;1.30;1.20;;;;;;;;;;10384723;28;20228;-74
2022/08/13 06:47:44;;;;;;;2.53;1.43;;;;;;;;;;10391139;28;20221;-74
2022/08/13 06:52:48;;;;;;;1.87;1.53;;;;;;;;;;10383387;28;20648;-73
2022/08/13 06:57:52;;;;;;;5.47;1.50;;;;;;;;;;10396370;28;20251;-74
2022/08/13 07:02:53;;;;;;;1.40;1.30;;;;;;;;;;10391470;28;20254;-73
2022/08/13 07:07:55;;;;;;;2.00;1.47;;;;;;;;;;10395954;28;20304;-71
2022/08/13 07:12:56;;;;;;;3.53;1.40;;;;;;;;;;10389712;28;20232;-74
2022/08/13 07:17:58;;;;;;;3.57;1.73;;;;;;;;;;10394450;28;20303;-73
2022/08/13 07:22:59;;;;;;;3.93;1.57;;;;;;;;;;10401339;28;20240;-73
2022/08/13 07:28:02;;;;;;;2.47;1.30;;;;;;;;;;10395319;28;20295;-73
2022/08/13 07:33:03;;;;;;;2.47;1.50;;;;;;;;;;10386612;28;20712;-74
2022/08/13 07:38:05;;;;;;;3.50;1.50;;;;;;;;;;10387402;28;20233;-73
2022/08/13 07:43:07;;;;;;;2.43;1.40;;;;;;;;;;10390444;28;20217;-72
2022/08/13 07:48:09;;;;;;;2.27;1.33;;;;;;;;;;10392633;28;20217;-73
2022/08/13 07:53:15;;;;;;;2.50;1.70;;;;;;;;;;10391730;28;20277;-73
2022/08/13 07:58:18;;;;;;;1.30;1.20;;;;;;;;;;10391497;28;20224;-73
2022/08/13 08:03:19;;;;;;;4.83;1.83;;;;;;;;;;10392133;28;20220;-74
2022/08/13 08:08:21;;;;;;;1.80;1.20;;;;;;;;;;10387959;28;20232;-73
2022/08/13 08:13:22;;;;;;;2.40;1.40;;;;;;;;;;10391290;28;20232;-74
2022/08/13 08:18:24;;;;;;;1.73;1.30;;;;;;;;;;10393151;28;20239;-73
2022/08/13 08:23:26;;;;;;;7.60;1.27;;;;;;;;;;10394779;28;20216;-73
2022/08/13 08:28:29;;;;;;;1.17;1.07;;;;;;;;;;10387404;28;20662;-74
2022/08/13 08:33:30;;;;;;;3.53;1.30;;;;;;;;;;10392119;28;20598;-74
2022/08/13 08:43:53;;;;;;;3.80;1.20;;;;;;;;;;10393609;28;20217;-74
2022/08/13 08:48:55;;;;;;;1.50;1.40;;;;;;;;;;10387902;28;20720;-74
2022/08/13 08:53:56;;;;;;;4.30;1.43;;;;;;;;;;10385158;28;20773;-74
2022/08/13 08:58:58;;;;;;;1.97;1.20;;;;;;;;;;10389774;28;20224;-74
2022/08/13 09:04:00;;;;;;;2.43;1.50;;;;;;;;;;10385735;28;20652;-73
2022/08/13 09:09:02;;;;;;;1.30;1.20;;;;;;;;;;10390783;28;20225;-74
2022/08/13 09:14:07;;;;;;;2.13;1.20;;;;;;;;;;10388275;28;20231;-74
2022/08/13 09:19:12;;;;;;;2.40;1.43;;;;;;;;;;10392626;28;20702;-73
2022/08/13 09:24:15;;;;;;;2.13;1.23;;;;;;;;;;10389113;28;20627;-74
2022/08/13 09:29:19;;;;;;;2.80;1.10;;;;;;;;;;10389455;28;20236;-74
2022/08/13 09:34:20;;;;;;;1.70;1.00;;;;;;;;;;10380139;28;20209;-74
2022/08/13 09:39:43;;;;;;;2.70;1.13;;;;;;;;;;10374369;28;20216;-74
2022/08/13 09:44:44;;;;;;;2.27;1.10;;;;;;;;;;10384041;28;20221;-75
2022/08/13 09:49:46;;;;;;;5.50;1.23;;;;;;;;;;10383948;28;20221;-74
2022/08/13 09:54:48;;;;;;;2.07;1.33;;;;;;;;;;10391315;28;20217;-74
2022/08/13 09:59:49;;;;;;;3.90;1.20;;;;;;;;;;10384847;28;20236;-75
2022/08/13 10:04:52;;;;;;;3.87;1.40;;;;;;;;;;10390624;28;20709;-75
2022/08/13 10:09:53;;;;;;;2.17;1.27;;;;;;;;;;10391479;28;20715;-75
2022/08/13 10:14:54;;;;;;;2.47;1.20;;;;;;;;;;10383981;28;20223;-75
2022/08/13 10:19:55;;;;;;;1.83;1.30;;;;;;;;;;10390537;28;20299;-74
2022/08/13 10:24:56;;;;;;;2.67;1.37;;;;;;;;;;10389567;28;20217;-74
2022/08/13 10:29:57;;;;;;;2.83;1.40;;;;;;;;;;10390277;28;20221;-74
2022/08/13 10:35:01;;;;;;;2.60;1.10;;;;;;;;;;10392027;28;20818;-74
2022/08/13 10:40:02;;;;;;;2.97;1.00;;;;;;;;;;10402827;28;20235;-74
2022/08/13 10:45:03;;;;;;;2.03;1.47;;;;;;;;;;10393341;28;20217;-75
2022/08/13 10:50:04;;;;;;;3.93;1.30;;;;;;;;;;10382090;28;20232;-74
2022/08/13 10:55:08;;;;;;;2.73;1.47;;;;;;;;;;10394427;28;20251;-74
2022/08/13 11:00:10;;;;;;;1.43;1.27;;;;;;;;;;10394812;28;20260;-74
2022/08/13 11:05:11;;;;;;;1.40;1.30;;;;;;;;;;10393850;28;20184;-72
2022/08/13 11:10:12;;;;;;;2.40;1.27;;;;;;;;;;10397614;28;20259;-72
2022/08/13 11:15:16;;;;;;;4.10;1.83;;;;;;;;;;10393503;28;20283;-73
2022/08/13 11:20:22;;;;;;;2.60;2.10;;;;;;;;;;10397724;28;20296;-73
2022/08/13 11:25:24;;;;;;;2.30;1.47;;;;;;;;;;10405596;28;20178;-73
2022/08/13 11:30:25;;;;;;;3.40;1.40;;;;;;;;;;10395287;28;20842;-73
2022/08/13 11:35:26;;;;;;;1.87;1.47;;;;;;;;;;10401387;28;20886;-72
2022/08/13 11:40:27;;;;;;;1.93;1.20;;;;;;;;;;10378289;28;20228;-72
2022/08/13 11:45:28;;;;;;;2.13;1.20;;;;;;;;;;10400425;28;20745;-72
2022/08/13 11:50:29;;;;;;;2.13;1.37;;;;;;;;;;10389885;28;20225;-73
2022/08/13 11:55:30;;;;;;;3.43;1.60;;;;;;;;;;10393395;28;20221;-72
2022/08/13 12:00:31;;;;;;;4.23;1.77;;;;;;;;;;10389594;28;20279;-72
2022/08/13 12:05:32;;;;;;;3.23;2.30;;;;;;;;;;10394352;28;20216;-72
2022/08/13 12:10:33;;;;;;;4.47;4.17;;;;;;;;;;10389058;28;20217;-73
2022/08/13 12:15:34;;;;;;;2.47;2.27;;;;;;;;;;10395134;28;20308;-72
2022/08/13 12:20:35;;;;;;;4.83;3.43;;;;;;;;;;10393357;28;20637;-73
2022/08/13 12:25:39;;;;;;;2.80;2.57;;;;;;;;;;10396390;28;20275;-73
2022/08/13 12:30:41;;;;;;;4.00;3.60;;;;;;;;;;10387371;28;20213;-73
2022/08/13 12:35:42;;;;;;;6.43;4.67;;;;;;;;;;10394319;28;20303;-73
2022/08/13 12:40:47;;;;;;;7.03;6.43;;;;;;;;;;10395161;28;20250;-73
2022/08/13 12:45:48;;;;;;;3.73;3.30;;;;;;;;;;10392084;28;20643;-73
2022/08/13 12:50:49;;;;;;;5.57;4.37;;;;;;;;;;10393463;28;20224;-72
2022/08/13 12:55:50;;;;;;;4.23;4.00;;;;;;;;;;10391396;28;20221;-72
2022/08/13 13:00:52;;;;;;;4.20;3.90;;;;;;;;;;10386562;28;20229;-72
2022/08/13 13:05:54;;;;;;;4.60;4.20;;;;;;;;;;10391939;28;20277;-73
2022/08/13 13:10:56;;;;;;;7.10;2.80;;;;;;;;;;10386750;28;20221;-72
2022/08/13 13:15:57;;;;;;;4.00;3.70;;;;;;;;;;10389702;28;20216;-73
2022/08/13 13:20:58;;;;;;;3.87;3.50;;;;;;;;;;10386889;28;20237;-73
2022/08/13 13:25:59;;;;;;;4.57;3.73;;;;;;;;;;10396897;28;20220;-72
2022/08/13 13:31:03;;;;;;;3.87;3.47;;;;;;;;;;10395131;28;20216;-72
2022/08/13 13:36:04;;;;;;;5.47;4.50;;;;;;;;;;10374449;28;20668;-72
2022/08/13 13:41:05;;;;;;;5.50;5.00;;;;;;;;;;10392317;28;20231;-72
2022/08/13 13:46:07;;;;;;;5.10;4.60;;;;;;;;;;10387995;28;20589;-73
2022/08/13 13:51:09;;;;;;;6.50;4.00;;;;;;;;;;10387338;28;20319;-73
2022/08/13 13:56:14;;;;;;;3.77;3.17;;;;;;;;;;10388295;28;20748;-72
2022/08/13 14:01:15;;;;;;;5.87;3.53;;;;;;;;;;10388769;28;20718;-73
2022/08/13 14:06:20;;;;;;;19.57;17.70;;;;;;;;;;10394749;28;20224;-74
2022/08/13 14:11:21;;;;;;;3.40;3.10;;;;;;;;;;10397001;28;20683;-72
2022/08/13 14:16:25;;;;;;;19.70;18.03;;;;;;;;;;10394653;28;20220;-72
2022/08/13 14:21:27;;;;;;;15.90;14.20;;;;;;;;;;10399717;28;20240;-73
2022/08/13 14:26:30;;;;;;;18.13;16.53;;;;;;;;;;10402665;28;20861;-72
2022/08/13 14:31:33;;;;;;;12.27;11.17;;;;;;;;;;10397576;28;20683;-73
2022/08/13 14:36:34;;;;;;;12.00;11.00;;;;;;;;;;10392981;28;20245;-72
2022/08/13 14:41:39;;;;;;;16.50;15.10;;;;;;;;;;10397456;28;20255;-73
2022/08/13 14:46:40;;;;;;;11.77;10.70;;;;;;;;;;10381092;28;20233;-73
2022/08/13 14:51:42;;;;;;;5.00;4.60;;;;;;;;;;10398426;28;20236;-72
2022/08/13 14:56:43;;;;;;;4.67;4.33;;;;;;;;;;10402121;28;20317;-74
2022/08/13 15:01:47;;;;;;;5.63;3.87;;;;;;;;;;10397845;28;20229;-73
2022/08/13 15:06:48;;;;;;;4.67;1.80;;;;;;;;;;10390568;28;20786;-73
2022/08/13 15:11:50;;;;;;;4.10;1.77;;;;;;;;;;10397874;28;20235;-73
2022/08/13 15:16:51;;;;;;;1.80;1.70;;;;;;;;;;10395428;28;20217;-73
2022/08/13 15:21:52;;;;;;;3.87;1.80;;;;;;;;;;10389166;28;20277;-73
2022/08/13 15:26:53;;;;;;;3.60;2.07;;;;;;;;;;10395742;28;20866;-73
2022/08/13 15:31:54;;;;;;;2.97;1.60;;;;;;;;;;10390870;28;20216;-73
2022/08/13 15:36:55;;;;;;;3.13;2.00;;;;;;;;;;10397070;28;20240;-73
2022/08/13 15:42:06;;;;;;;2.20;1.83;;;;;;;;;;10396162;28;20224;-73
2022/08/13 15:47:10;;;;;;;4.97;3.20;;;;;;;;;;10393139;28;20390;-73
2022/08/13 15:52:14;;;;;;;7.97;4.70;;;;;;;;;;10391431;28;20220;-73
2022/08/13 15:57:19;;;;;;;3.93;3.50;;;;;;;;;;10391219;28;20304;-73
2022/08/13 16:02:21;;;;;;;2.37;1.70;;;;;;;;;;10392165;28;20674;-73
2022/08/13 16:07:26;;;;;;;3.70;1.40;;;;;;;;;;10389433;28;20278;-73
2022/08/13 16:12:30;;;;;;;1.87;1.73;;;;;;;;;;10393904;28;20218;-72
2022/08/13 16:17:37;;;;;;;1.90;1.47;;;;;;;;;;10393558;28;20247;-73
2022/08/13 16:22:38;;;;;;;4.20;2.83;;;;;;;;;;10395070;28;20722;-73
2022/08/13 16:27:40;;;;;;;8.33;6.70;;;;;;;;;;10384863;28;20226;-74
2022/08/13 16:32:41;;;;;;;3.10;2.23;;;;;;;;;;10394023;28;20275;-73
2022/08/13 16:37:43;;;;;;;5.10;2.00;;;;;;;;;;10402964;28;20299;-73
2022/08/13 16:42:48;;;;;;;9.23;2.17;;;;;;;;;;10385865;28;20229;-73
2022/08/13 16:47:50;;;;;;;4.27;1.53;;;;;;;;;;10393140;28;20239;-73
2022/08/13 16:52:51;;;;;;;1.97;1.30;;;;;;;;;;10395137;28;20275;-73
2022/08/13 16:57:52;;;;;;;2.40;1.43;;;;;;;;;;10387050;28;20221;-73
2022/08/13 17:13:38;;;;;;;4.93;2.97;;;;;;;;;;10387127;28;20221;-72
2022/08/13 17:18:40;;;;;;;2.03;1.83;;;;;;;;;;10392844;28;20298;-73
2022/08/13 17:23:41;;;;;;;3.73;1.73;;;;;;;;;;10392927;28;20217;-72
2022/08/13 17:28:42;;;;;;;1.40;1.30;;;;;;;;;;10392376;28;20672;-73
2022/08/13 17:33:43;;;;;;;1.73;1.63;;;;;;;;;;10391164;28;20303;-73
2022/08/13 17:38:45;;;;;;;3.00;1.90;;;;;;;;;;10384934;28;20756;-73
2022/08/13 17:43:49;;;;;;;3.00;1.70;;;;;;;;;;10392247;28;20304;-73
2022/08/13 17:48:52;;;;;;;1.60;1.50;;;;;;;;;;10391416;28;20233;-73
2022/08/13 17:53:53;;;;;;;4.13;1.60;;;;;;;;;;10391314;28;20606;-73
2022/08/13 17:58:54;;;;;;;2.30;1.83;;;;;;;;;;10382892;28;20765;-73
2022/08/13 18:03:56;;;;;;;2.03;1.50;;;;;;;;;;10391831;28;20307;-73
2022/08/13 18:08:59;;;;;;;2.10;1.90;;;;;;;;;;10385436;28;20249;-73
2022/08/13 18:13:59;;;;;;;4.00;1.97;;;;;;;;;;10389133;28;20315;-72
2022/08/13 18:19:05;;;;;;;3.80;1.83;;;;;;;;;;10386081;28;20674;-72
2022/08/13 18:24:06;;;;;;;7.53;1.87;;;;;;;;;;10388143;28;20639;-74
2022/08/13 18:29:08;;;;;;;3.20;1.80;;;;;;;;;;10399208;28;20699;-75
2022/08/13 18:34:12;;;;;;;3.50;1.77;;;;;;;;;;10392826;28;20909;-74
2022/08/13 18:39:13;;;;;;;2.40;1.67;;;;;;;;;;10387108;28;20228;-73
2022/08/13 18:44:15;;;;;;;3.33;2.30;;;;;;;;;;10385297;28;20228;-73
2022/08/13 18:49:16;;;;;;;3.10;2.17;;;;;;;;;;10387179;28;20236;-72
2022/08/13 18:54:17;;;;;;;7.80;5.27;;;;;;;;;;10398122;28;20711;-73
2022/08/13 18:59:18;;;;;;;15.07;9.43;;;;;;;;;;10394388;28;20641;-73
2022/08/13 19:04:19;;;;;;;15.53;11.00;;;;;;;;;;10392605;28;20237;-73
2022/08/13 19:09:21;;;;;;;15.07;12.63;;;;;;;;;;10394928;28;20307;-73
2022/08/13 19:14:26;;;;;;;13.20;11.63;;;;;;;;;;10392464;28;20218;-73
2022/08/13 19:19:27;;;;;;;11.87;8.67;;;;;;;;;;10394824;28;20318;-73
2022/08/13 19:24:32;;;;;;;10.23;7.57;;;;;;;;;;10396331;28;20274;-73
2022/08/13 19:29:33;;;;;;;8.07;6.40;;;;;;;;;;10397125;28;20308;-73
2022/08/13 19:34:34;;;;;;;7.37;5.40;;;;;;;;;;10389712;28;20227;-73
2022/08/13 19:39:45;;;;;;;7.63;5.80;;;;;;;;;;10404140;28;20227;-74
2022/08/13 19:44:47;;;;;;;6.67;4.87;;;;;;;;;;10396044;28;20736;-73
2022/08/13 19:49:48;;;;;;;20.83;5.47;;;;;;;;;;10387919;28;20229;-73
2022/08/13 19:54:49;;;;;;;6.33;4.20;;;;;;;;;;10394061;28;20648;-73
2022/08/13 19:59:57;;;;;;;12.40;4.20;;;;;;;;;;10395846;28;20224;-73
2022/08/13 20:05:01;;;;;;;7.83;4.77;;;;;;;;;;10389819;28;20213;-73
2022/08/13 20:10:02;;;;;;;6.33;4.30;;;;;;;;;;10391962;28;20299;-73
2022/08/13 20:15:05;;;;;;;4.87;4.10;;;;;;;;;;10389626;28;20221;-73
2022/08/13 20:20:11;;;;;;;6.70;3.20;;;;;;;;;;10391894;28;20223;-73
2022/08/13 20:25:12;;;;;;;21.13;12.80;;;;;;;;;;10389691;28;20184;-73
2022/08/13 20:30:15;;;;;;;15.03;9.73;;;;;;;;;;10389954;28;20709;-72
2022/08/13 20:35:18;;;;;;;8.20;6.17;;;;;;;;;;10394476;28;20200;-72
2022/08/13 20:40:22;;;;;;;8.53;4.33;;;;;;;;;;10389600;28;20233;-72
2022/08/13 20:45:24;;;;;;;6.40;3.53;;;;;;;;;;10391703;28;20177;-72
2022/08/13 20:50:26;;;;;;;5.27;3.10;;;;;;;;;;10386863;28;20639;-72
2022/08/13 20:55:27;;;;;;;3.20;2.83;;;;;;;;;;10397684;28;20204;-73
2022/08/13 21:00:30;;;;;;;5.60;2.40;;;;;;;;;;10386841;28;20294;-72
2022/08/13 21:05:32;;;;;;;4.90;2.43;;;;;;;;;;10393607;28;20594;-73
2022/08/13 21:10:33;;;;;;;6.27;2.80;;;;;;;;;;10383566;28;20239;-73
2022/08/13 21:15:34;;;;;;;4.60;2.67;;;;;;;;;;10386255;28;20248;-73
2022/08/13 21:20:35;;;;;;;3.90;2.70;;;;;;;;;;10392435;28;20231;-73
2022/08/13 21:25:36;;;;;;;6.20;2.90;;;;;;;;;;10398762;28;20603;-72
2022/08/13 21:30:37;;;;;;;5.13;2.83;;;;;;;;;;10385536;28;20811;-73
2022/08/13 21:35:39;;;;;;;6.07;3.20;;;;;;;;;;10391888;28;20696;-73
2022/08/13 21:40:40;;;;;;;3.73;3.17;;;;;;;;;;10392627;28;20217;-73
2022/08/13 21:45:41;;;;;;;3.43;3.13;;;;;;;;;;10382389;28;20667;-73
2022/08/13 21:50:42;;;;;;;3.40;3.10;;;;;;;;;;10390759;28;20302;-73
2022/08/13 21:55:43;;;;;;;5.27;3.13;;;;;;;;;;10384699;28;20704;-73
2022/08/13 22:00:45;;;;;;;3.77;3.00;;;;;;;;;;10391621;28;20229;-73
2022/08/13 22:05:47;;;;;;;5.80;3.30;;;;;;;;;;10384146;28;20602;-73
2022/08/13 22:10:47;;;;;;;3.70;3.10;;;;;;;;;;10391343;28;20216;-73
2022/08/13 22:16:01;;;;;;;4.10;3.10;;;;;;;;;;10384062;28;20229;-73
2022/08/13 22:21:02;;;;;;;3.47;3.20;;;;;;;;;;10387710;28;20225;-73
2022/08/13 22:26:04;;;;;;;3.40;3.10;;;;;;;;;;10391128;28;20811;-73
2022/08/13 22:31:06;;;;;;;3.70;3.30;;;;;;;;;;10398103;28;20216;-72
2022/08/13 22:36:07;;;;;;;4.77;3.70;;;;;;;;;;10407008;28;20894;-72
2022/08/13 22:41:11;;;;;;;3.50;3.20;;;;;;;;;;10395173;28;20229;-74
2022/08/13 22:46:12;;;;;;;3.57;3.27;;;;;;;;;;10394626;28;20278;-72
2022/08/13 22:51:17;;;;;;;5.03;3.43;;;;;;;;;;10390993;28;20592;-72
2022/08/13 22:56:24;;;;;;;4.17;3.67;;;;;;;;;;10400579;28;20217;-72
2022/08/13 23:01:25;;;;;;;6.70;3.40;;;;;;;;;;10394202;28;20594;-72
2022/08/13 23:06:27;;;;;;;5.27;3.97;;;;;;;;;;10392364;28;20217;-72
2022/08/13 23:11:31;;;;;;;4.20;3.80;;;;;;;;;;10396576;28;20227;-72
2022/08/13 23:16:32;;;;;;;4.47;3.77;;;;;;;;;;10389455;28;20232;-74
2022/08/13 23:21:33;;;;;;;4.30;3.90;;;;;;;;;;10396173;28;20229;-72
2022/08/13 23:26:34;;;;;;;4.90;4.30;;;;;;;;;;10397588;28;20229;-73
2022/08/13 23:31:37;;;;;;;5.93;4.20;;;;;;;;;;10395625;28;20220;-73
2022/08/13 23:36:38;;;;;;;4.27;3.77;;;;;;;;;;10394617;28;20217;-72
2022/08/13 23:41:39;;;;;;;4.60;4.00;;;;;;;;;;10396441;28;20275;-73
2022/08/13 23:46:40;;;;;;;5.70;4.37;;;;;;;;;;10397193;28;20637;-73
2022/08/13 23:51:41;;;;;;;4.73;4.33;;;;;;;;;;10394757;28;20232;-72
2022/08/13 23:56:45;;;;;;;4.40;4.10;;;;;;;;;;10388755;28;20276;-72
